Time;durP1;ratioP1;P1;durP2;ratioP2;P2;SDS_P1;SDS_P2;PMS_P1;PMS_P2;Temp;Humidity;BMP_temperature;BMP_pressure;BME280_temperature;BME280_humidity;BME280_pressure;Samples;Min_cycle;Max_cycle;Signal;HPM_P1;HPM_P2
2022/06/16 00:00:05;;;;;;;;;;;28.10;38.80;;;;;;4113135;28;20500;-60
2022/06/16 00:02:07;;;;;;;;;;;27.90;39.10;;;;;;4104124;28;20735;-60
2022/06/16 00:04:08;;;;;;;;;;;27.80;39.40;;;;;;4103079;28;19988;-61
2022/06/16 00:06:10;;;;;;;;;;;27.60;39.20;;;;;;4113010;28;19925;-63
2022/06/16 00:08:13;;;;;;;;;;;27.50;39.10;;;;;;4103358;28;20412;-62
2022/06/16 00:10:15;;;;;;;;;;;27.30;39.10;;;;;;4102354;28;19971;-62
2022/06/16 00:12:17;;;;;;;;;;;27.10;39.30;;;;;;4108612;28;20006;-62
2022/06/16 00:14:18;;;;;;;;;;;27.00;39.20;;;;;;4107780;28;20631;-61
2022/06/16 00:16:20;;;;;;;;;;;26.90;39.10;;;;;;4102789;28;19929;-61
2022/06/16 00:18:22;;;;;;;;;;;26.70;39.30;;;;;;4108200;28;19964;-62
2022/06/16 00:20:24;;;;;;;;;;;26.60;39.30;;;;;;4107819;28;20317;-60
2022/06/16 00:22:25;;;;;;;;;;;26.50;39.40;;;;;;4101641;28;19979;-60
2022/06/16 00:24:27;;;;;;;;;;;26.30;39.40;;;;;;4107104;28;19925;-61
2022/06/16 00:26:29;;;;;;;;;;;26.20;39.70;;;;;;4095707;28;19995;-60
2022/06/16 00:28:31;;;;;;;;;;;26.10;39.70;;;;;;4103838;28;20370;-61
2022/06/16 00:30:32;;;;;;;;;;;26.00;39.70;;;;;;4103043;28;19929;-61
2022/06/16 00:32:34;;;;;;;;;;;25.90;40.00;;;;;;4109634;28;20040;-62
2022/06/16 00:34:35;;;;;;;;;;;25.80;40.10;;;;;;4105792;28;19941;-64
2022/06/16 00:36:38;;;;;;;;;;;25.70;40.10;;;;;;4104418;28;19925;-57
2022/06/16 00:38:40;;;;;;;;;;;25.60;40.20;;;;;;4113704;28;20406;-61
2022/06/16 00:40:41;;;;;;;;;;;25.50;40.30;;;;;;4097710;28;21703;-60
2022/06/16 00:42:44;;;;;;;;;;;25.40;40.20;;;;;;4104347;28;20365;-60
2022/06/16 00:44:50;;;;;;;;;;;25.30;40.30;;;;;;4112906;28;20035;-60
2022/06/16 00:46:52;;;;;;;;;;;25.20;40.60;;;;;;4112071;28;20275;-63
2022/06/16 00:48:56;;;;;;;;;;;25.10;40.70;;;;;;4102405;28;20814;-61
2022/06/16 00:51:21;;;;;;;;;;;25.00;40.70;;;;;;4101613;28;19971;-60
2022/06/16 00:53:23;;;;;;;;;;;24.90;40.90;;;;;;4098995;28;19937;-59
2022/06/16 00:55:26;;;;;;;;;;;24.80;41.10;;;;;;4103636;28;20438;-55
2022/06/16 00:57:33;;;;;;;;;;;24.70;41.20;;;;;;4108025;28;19936;-57
2022/06/16 00:59:36;;;;;;;;;;;24.60;41.50;;;;;;4111094;28;20489;-59
2022/06/16 01:01:40;;;;;;;;;;;24.50;41.70;;;;;;4102033;28;19935;-61
2022/06/16 01:06:02;;;;;;;;;;;24.40;41.80;;;;;;4104060;28;21380;-59
2022/06/16 01:08:07;;;;;;;;;;;24.40;42.20;;;;;;4086379;28;20284;-61
2022/06/16 01:10:09;;;;;;;;;;;24.30;42.30;;;;;;4105108;28;19971;-60
2022/06/16 01:15:11;;;;;;;;;;;24.20;42.50;;;;;;4108520;28;20420;-60
2022/06/16 01:17:31;;;;;;;;;;;24.10;42.80;;;;;;4108090;28;19925;-56
2022/06/16 01:19:50;;;;;;;;;;;24.00;42.90;;;;;;4101765;28;19943;-59
2022/06/16 01:22:09;;;;;;;;;;;23.90;43.10;;;;;;4100505;28;19973;-59
2022/06/16 01:24:33;;;;;;;;;;;23.90;43.10;;;;;;4101452;28;19925;-58
2022/06/16 01:27:00;;;;;;;;;;;23.80;43.30;;;;;;4101200;28;19986;-59
2022/06/16 01:29:11;;;;;;;;;;;23.70;43.50;;;;;;4100618;28;19929;-58
2022/06/16 01:31:25;;;;;;;;;;;23.60;43.50;;;;;;4101457;28;19987;-57
2022/06/16 01:33:42;;;;;;;;;;;23.60;43.50;;;;;;4103133;28;20668;-59
2022/06/16 01:36:02;;;;;;;;;;;23.50;43.50;;;;;;4102481;28;19975;-60
2022/06/16 01:38:04;;;;;;;;;;;23.50;43.60;;;;;;4108450;28;19929;-61
2022/06/16 01:40:09;;;;;;;;;;;23.40;43.70;;;;;;4102585;28;20123;-56
2022/06/16 01:42:14;;;;;;;;;;;23.30;43.80;;;;;;4103182;28;20016;-56
2022/06/16 01:44:20;;;;;;;;;;;23.30;44.00;;;;;;4106584;28;20604;-56
2022/06/16 01:46:26;;;;;;;;;;;23.30;44.70;;;;;;4107909;28;19933;-55
2022/06/16 01:48:29;;;;;;;;;;;23.20;44.10;;;;;;4106016;28;19929;-53
2022/06/16 01:50:42;;;;;;;;;;;23.10;44.30;;;;;;4104216;28;20460;-61
2022/06/16 01:52:49;;;;;;;;;;;23.10;44.40;;;;;;4102106;28;20119;-59
2022/06/16 01:54:54;;;;;;;;;;;23.00;44.40;;;;;;4102885;28;19925;-61
2022/06/16 01:57:02;;;;;;;;;;;23.00;44.50;;;;;;4106520;28;20452;-60
2022/06/16 01:59:16;;;;;;;;;;;23.00;44.50;;;;;;4108234;28;20023;-59
2022/06/16 02:01:19;;;;;;;;;;;22.90;44.50;;;;;;4108061;28;19936;-62
2022/06/16 02:03:27;;;;;;;;;;;22.90;44.70;;;;;;4104734;28;20289;-62
2022/06/16 02:05:41;;;;;;;;;;;22.90;44.70;;;;;;4099783;28;19929;-61
2022/06/16 02:07:46;;;;;;;;;;;22.80;44.80;;;;;;4101426;28;21104;-61
2022/06/16 02:09:51;;;;;;;;;;;22.80;44.80;;;;;;4099034;28;19929;-56
2022/06/16 02:11:54;;;;;;;;;;;22.70;45.00;;;;;;4103432;28;19936;-61
2022/06/16 02:14:02;;;;;;;;;;;22.70;45.10;;;;;;4110050;28;19936;-64
2022/06/16 02:16:06;;;;;;;;;;;22.70;45.00;;;;;;4106582;28;20981;-63
2022/06/16 02:18:09;;;;;;;;;;;22.60;45.00;;;;;;4101131;28;19929;-62
2022/06/16 02:20:11;;;;;;;;;;;22.60;45.30;;;;;;4102455;28;19963;-61
2022/06/16 02:22:13;;;;;;;;;;;22.60;45.40;;;;;;4105958;28;20459;-61
2022/06/16 02:24:19;;;;;;;;;;;22.60;45.50;;;;;;4100003;28;20910;-60
2022/06/16 02:26:20;;;;;;;;;;;22.50;45.40;;;;;;4086155;28;19937;-59
2022/06/16 02:28:22;;;;;;;;;;;22.50;45.60;;;;;;4101387;28;19964;-57
2022/06/16 02:30:27;;;;;;;;;;;22.50;45.50;;;;;;4111123;28;19980;-61
2022/06/16 02:32:40;;;;;;;;;;;22.40;45.40;;;;;;4100758;28;20092;-61
2022/06/16 02:34:50;;;;;;;;;;;22.40;45.60;;;;;;4103169;28;19983;-59
2022/06/16 02:37:10;;;;;;;;;;;22.40;45.80;;;;;;4101016;28;20890;-60
2022/06/16 02:39:27;;;;;;;;;;;22.30;45.90;;;;;;4109922;28;20963;-60
2022/06/16 02:41:38;;;;;;;;;;;22.30;45.80;;;;;;4108928;28;20121;-57
2022/06/16 02:43:45;;;;;;;;;;;22.30;46.00;;;;;;4125321;28;19940;-60
2022/06/16 02:45:56;;;;;;;;;;;22.30;46.10;;;;;;4107963;28;19929;-60
2022/06/16 02:48:10;;;;;;;;;;;22.30;46.00;;;;;;4088090;28;20373;-58
2022/06/16 02:50:15;;;;;;;;;;;22.20;46.20;;;;;;4108889;28;19936;-59
2022/06/16 02:52:26;;;;;;;;;;;22.20;46.30;;;;;;4101488;28;19985;-59
2022/06/16 02:54:38;;;;;;;;;;;22.20;46.40;;;;;;4100125;28;20032;-62
2022/06/16 02:56:58;;;;;;;;;;;22.20;46.20;;;;;;4103171;28;20314;-62
2022/06/16 02:59:04;;;;;;;;;;;22.10;46.00;;;;;;4109142;28;20651;-61
2022/06/16 03:01:06;;;;;;;;;;;22.10;46.00;;;;;;4101993;28;19929;-62
2022/06/16 03:03:28;;;;;;;;;;;22.10;45.90;;;;;;4101473;28;20321;-62
2022/06/16 03:05:30;;;;;;;;;;;22.10;46.00;;;;;;4100910;28;19929;-62
2022/06/16 03:07:33;;;;;;;;;;;22.00;45.90;;;;;;4118576;28;19967;-60
2022/06/16 03:09:37;;;;;;;;;;;22.00;45.60;;;;;;4107347;28;19925;-62
2022/06/16 03:11:39;;;;;;;;;;;22.00;46.20;;;;;;4106809;28;20107;-62
2022/06/16 03:13:41;;;;;;;;;;;22.00;46.50;;;;;;4100085;28;20024;-64
2022/06/16 03:15:43;;;;;;;;;;;21.90;46.80;;;;;;4103782;28;20326;-60
2022/06/16 03:17:44;;;;;;;;;;;21.90;47.20;;;;;;4107338;28;20475;-61
2022/06/16 03:19:46;;;;;;;;;;;21.90;47.30;;;;;;4100776;28;20376;-62
2022/06/16 03:21:47;;;;;;;;;;;21.90;47.30;;;;;;4103716;28;20393;-66
2022/06/16 03:23:49;;;;;;;;;;;21.90;47.50;;;;;;4111234;28;19936;-66
2022/06/16 03:25:51;;;;;;;;;;;22.00;47.50;;;;;;4100594;28;20475;-60
2022/06/16 03:27:52;;;;;;;;;;;22.00;47.40;;;;;;4101798;28;19983;-55
2022/06/16 03:29:54;;;;;;;;;;;22.00;46.70;;;;;;4100487;28;19929;-46
2022/06/16 03:31:56;;;;;;;;;;;21.90;46.50;;;;;;4101310;28;20225;-61
2022/06/16 03:33:57;;;;;;;;;;;21.90;46.50;;;;;;4100722;28;19929;-60
2022/06/16 03:35:59;;;;;;;;;;;21.90;46.60;;;;;;4108132;28;19925;-65
2022/06/16 03:38:05;;;;;;;;;;;21.90;46.90;;;;;;4102719;28;19928;-63
2022/06/16 03:40:08;;;;;;;;;;;21.90;47.00;;;;;;4083250;28;21315;-68
2022/06/16 03:42:10;;;;;;;;;;;21.90;47.00;;;;;;4102147;28;19994;-61
2022/06/16 03:44:12;;;;;;;;;;;21.90;46.80;;;;;;4109199;28;19937;-64
2022/06/16 03:46:15;;;;;;;;;;;21.90;46.90;;;;;;4110581;28;20429;-63
2022/06/16 03:48:17;;;;;;;;;;;21.90;47.10;;;;;;4102499;28;19947;-61
2022/06/16 03:50:19;;;;;;;;;;;21.90;47.20;;;;;;4112203;28;19935;-63
2022/06/16 03:52:20;;;;;;;;;;;21.90;47.20;;;;;;4105940;28;19947;-63
2022/06/16 03:54:22;;;;;;;;;;;22.00;47.30;;;;;;4101777;28;20027;-61
2022/06/16 03:56:24;;;;;;;;;;;22.00;47.40;;;;;;4110452;28;19928;-61
2022/06/16 03:58:25;;;;;;;;;;;22.00;47.40;;;;;;4107600;28;21078;-63
2022/06/16 04:00:27;;;;;;;;;;;22.00;47.50;;;;;;4110129;28;19929;-65
2022/06/16 04:02:28;;;;;;;;;;;22.00;47.50;;;;;;4111884;28;20411;-64
2022/06/16 04:04:30;;;;;;;;;;;22.10;47.50;;;;;;4111734;28;20418;-61
2022/06/16 04:06:33;;;;;;;;;;;22.10;47.60;;;;;;4122256;28;19929;-59
2022/06/16 04:08:35;;;;;;;;;;;22.10;47.50;;;;;;4108800;28;20457;-61
2022/06/16 04:10:36;;;;;;;;;;;22.20;47.60;;;;;;4118458;28;20685;-59
2022/06/16 04:12:38;;;;;;;;;;;22.20;47.50;;;;;;4114202;28;19982;-61
2022/06/16 04:14:39;;;;;;;;;;;22.20;47.50;;;;;;4111098;28;20493;-61
2022/06/16 04:16:42;;;;;;;;;;;22.20;47.50;;;;;;4116275;28;19929;-67
2022/06/16 04:18:44;;;;;;;;;;;22.20;47.70;;;;;;4110665;28;19964;-64
2022/06/16 04:20:46;;;;;;;;;;;22.20;47.60;;;;;;4109977;28;20390;-65
2022/06/16 04:22:49;;;;;;;;;;;22.20;47.70;;;;;;4119196;28;20019;-61
2022/06/16 04:24:51;;;;;;;;;;;22.30;47.90;;;;;;4110728;28;22149;-64
2022/06/16 04:26:54;;;;;;;;;;;22.30;47.80;;;;;;4108157;28;20429;-64
2022/06/16 04:28:56;;;;;;;;;;;22.30;47.70;;;;;;4115604;28;20125;-65
2022/06/16 04:30:58;;;;;;;;;;;22.40;47.80;;;;;;4112997;28;21467;-67
2022/06/16 04:32:59;;;;;;;;;;;22.50;47.80;;;;;;4110178;28;20007;-67
2022/06/16 04:35:01;;;;;;;;;;;22.50;47.50;;;;;;4110526;28;20093;-66
2022/06/16 04:37:03;;;;;;;;;;;22.50;47.60;;;;;;4114967;28;20147;-65
2022/06/16 04:39:04;;;;;;;;;;;22.50;47.50;;;;;;4108397;28;19925;-63
2022/06/16 04:41:06;;;;;;;;;;;22.60;47.50;;;;;;4110629;28;19929;-65
2022/06/16 04:43:08;;;;;;;;;;;22.60;47.50;;;;;;4118093;28;20011;-68
2022/06/16 04:45:10;;;;;;;;;;;22.70;47.40;;;;;;4104398;28;20023;-64
2022/06/16 04:47:12;;;;;;;;;;;22.70;47.40;;;;;;4106365;28;20385;-63
2022/06/16 04:49:14;;;;;;;;;;;22.70;47.50;;;;;;4112192;28;20006;-66
2022/06/16 04:51:16;;;;;;;;;;;22.70;47.40;;;;;;4104933;28;20074;-62
2022/06/16 04:53:17;;;;;;;;;;;22.70;48.00;;;;;;4104360;28;19936;-62
2022/06/16 04:55:20;;;;;;;;;;;22.80;47.40;;;;;;4109798;28;19980;-70
2022/06/16 04:57:22;;;;;;;;;;;22.80;47.30;;;;;;4106942;28;19929;-63
2022/06/16 04:59:23;;;;;;;;;;;22.80;47.20;;;;;;4107800;28;19933;-63
2022/06/16 05:01:25;;;;;;;;;;;22.80;47.40;;;;;;4113417;28;19925;-61
2022/06/16 05:03:28;;;;;;;;;;;22.80;47.20;;;;;;4112305;28;20464;-55
2022/06/16 05:05:29;;;;;;;;;;;22.70;46.90;;;;;;4105478;28;20046;-62
2022/06/16 05:07:31;;;;;;;;;;;22.70;47.20;;;;;;4111948;28;20920;-50
2022/06/16 05:09:33;;;;;;;;;;;22.60;47.00;;;;;;4113984;28;20170;-60
2022/06/16 05:11:34;;;;;;;;;;;22.60;47.10;;;;;;4109412;28;20306;-56
2022/06/16 05:13:36;;;;;;;;;;;22.60;47.10;;;;;;4109595;28;20035;-51
2022/06/16 05:15:38;;;;;;;;;;;22.50;47.00;;;;;;4118696;28;20495;-50
2022/06/16 05:17:39;;;;;;;;;;;22.50;47.00;;;;;;4109404;28;19925;-43
2022/06/16 05:19:41;;;;;;;;;;;22.40;47.00;;;;;;4111483;28;20907;-59
2022/06/16 05:21:43;;;;;;;;;;;22.40;47.00;;;;;;4119304;28;20016;-60
2022/06/16 05:23:45;;;;;;;;;;;22.40;47.40;;;;;;4108698;28;19929;-54
2022/06/16 05:25:47;;;;;;;;;;;22.40;47.60;;;;;;4109072;28;19952;-59
2022/06/16 05:27:48;;;;;;;;;;;22.40;47.80;;;;;;4113830;28;19947;-58
2022/06/16 05:29:50;;;;;;;;;;;22.30;48.00;;;;;;4111413;28;19929;-60
2022/06/16 05:31:52;;;;;;;;;;;22.30;48.10;;;;;;4110210;28;20439;-51
2022/06/16 05:33:53;;;;;;;;;;;22.30;48.30;;;;;;4112830;28;19929;-58
2022/06/16 05:36:05;;;;;;;;;;;22.30;48.60;;;;;;4111661;28;20118;-57
2022/06/16 05:38:07;;;;;;;;;;;22.30;48.70;;;;;;4112640;28;19933;-58
2022/06/16 05:40:09;;;;;;;;;;;22.30;48.80;;;;;;4107239;28;19924;-59
2022/06/16 05:42:10;;;;;;;;;;;22.30;49.00;;;;;;4112216;28;20534;-60
2022/06/16 05:44:12;;;;;;;;;;;22.30;49.20;;;;;;4108101;28;19929;-59
2022/06/16 05:46:19;;;;;;;;;;;22.30;49.20;;;;;;4105943;28;19928;-58
2022/06/16 05:48:21;;;;;;;;;;;22.20;49.30;;;;;;4106121;28;20059;-62
2022/06/16 05:50:22;;;;;;;;;;;22.20;48.90;;;;;;4115438;28;20341;-63
2022/06/16 05:52:24;;;;;;;;;;;22.20;49.00;;;;;;4107827;28;20501;-59
2022/06/16 05:54:25;;;;;;;;;;;22.20;49.80;;;;;;4102895;28;19929;-61
2022/06/16 05:56:27;;;;;;;;;;;22.10;49.90;;;;;;4113696;28;19935;-62
2022/06/16 05:58:29;;;;;;;;;;;22.20;50.10;;;;;;4110364;28;19929;-59
2022/06/16 06:00:31;;;;;;;;;;;22.10;50.10;;;;;;4109144;28;19998;-59
2022/06/16 06:02:33;;;;;;;;;;;22.20;50.10;;;;;;4113512;28;20549;-63
2022/06/16 06:04:34;;;;;;;;;;;22.10;50.00;;;;;;4111718;28;20720;-60
2022/06/16 06:06:36;;;;;;;;;;;22.10;50.40;;;;;;4109378;28;19936;-61
2022/06/16 06:17:58;;;;;;;;;;;22.10;51.30;;;;;;4103574;28;20410;-61
2022/06/16 06:19:59;;;;;;;;;;;22.10;51.30;;;;;;4104616;28;20651;-68
2022/06/16 06:22:07;;;;;;;;;;;22.10;51.50;;;;;;4099739;28;20454;-63
2022/06/16 06:24:10;;;;;;;;;;;22.10;51.50;;;;;;4102646;28;20426;-66
2022/06/16 06:26:13;;;;;;;;;;;22.00;51.40;;;;;;4103173;28;19929;-68
2022/06/16 06:28:18;;;;;;;;;;;22.10;51.40;;;;;;4105213;28;21264;-67
2022/06/16 06:30:20;;;;;;;;;;;22.00;51.30;;;;;;4101979;28;20010;-69
2022/06/16 06:32:23;;;;;;;;;;;22.00;51.30;;;;;;4098040;28;20265;-67
2022/06/16 06:34:25;;;;;;;;;;;22.00;51.20;;;;;;4107467;28;19929;-64
2022/06/16 06:36:26;;;;;;;;;;;22.00;51.30;;;;;;4099355;28;20291;-63
2022/06/16 06:38:29;;;;;;;;;;;22.00;51.20;;;;;;4099467;28;19943;-60
2022/06/16 06:40:32;;;;;;;;;;;22.00;51.60;;;;;;4103347;28;20382;-62
2022/06/16 06:42:34;;;;;;;;;;;21.90;51.80;;;;;;4104039;28;21034;-61
2022/06/16 06:44:36;;;;;;;;;;;22.00;51.80;;;;;;4101192;28;19926;-52
2022/06/16 06:46:37;;;;;;;;;;;21.90;51.40;;;;;;4102456;28;20095;-59
2022/06/16 06:48:39;;;;;;;;;;;21.90;51.50;;;;;;4101373;28;19929;-64
2022/06/16 06:50:41;;;;;;;;;;;21.90;51.40;;;;;;4097989;28;19933;-55
2022/06/16 06:52:42;;;;;;;;;;;21.90;51.30;;;;;;4099153;28;20337;-47
2022/06/16 06:54:45;;;;;;;;;;;21.90;51.30;;;;;;4107909;28;20721;-58
2022/06/16 06:56:47;;;;;;;;;;;21.80;51.30;;;;;;4101799;28;19936;-60
2022/06/16 06:58:49;;;;;;;;;;;21.80;51.30;;;;;;4104506;28;20616;-57
2022/06/16 07:00:53;;;;;;;;;;;21.80;51.00;;;;;;4117821;28;20412;-62
2022/06/16 07:02:55;;;;;;;;;;;21.80;51.10;;;;;;4111952;28;21052;-55
2022/06/16 07:04:56;;;;;;;;;;;21.80;50.90;;;;;;4108518;28;19964;-61
2022/06/16 07:06:58;;;;;;;;;;;21.80;50.90;;;;;;4111765;28;19936;-63
2022/06/16 07:08:59;;;;;;;;;;;21.70;50.90;;;;;;4111225;28;20612;-62
2022/06/16 07:11:01;;;;;;;;;;;21.70;50.80;;;;;;4105903;28;20519;-59
2022/06/16 07:13:03;;;;;;;;;;;21.70;51.00;;;;;;4110148;28;20373;-61
2022/06/16 07:15:05;;;;;;;;;;;21.60;50.90;;;;;;4112766;28;20136;-55
2022/06/16 07:17:07;;;;;;;;;;;21.60;50.90;;;;;;4105092;28;20525;-56
2022/06/16 07:19:08;;;;;;;;;;;21.60;50.60;;;;;;4108140;28;20509;-65
2022/06/16 07:21:10;;;;;;;;;;;21.60;50.80;;;;;;4111695;28;19979;-63
2022/06/16 07:23:12;;;;;;;;;;;21.60;51.10;;;;;;4108867;28;19936;-63
2022/06/16 07:25:15;;;;;;;;;;;21.60;51.30;;;;;;4106104;28;19924;-63
2022/06/16 07:27:17;;;;;;;;;;;21.60;51.60;;;;;;4116505;28;20368;-64
2022/06/16 07:29:19;;;;;;;;;;;21.60;51.80;;;;;;4108862;28;20054;-64
2022/06/16 07:31:21;;;;;;;;;;;21.70;51.90;;;;;;4106404;28;19924;-49
2022/06/16 07:33:23;;;;;;;;;;;21.60;51.90;;;;;;4117956;28;19936;-59
2022/06/16 07:35:24;;;;;;;;;;;21.60;51.90;;;;;;4114144;28;21140;-48
2022/06/16 07:37:26;;;;;;;;;;;21.60;51.30;;;;;;4110357;28;20492;-48
2022/06/16 07:39:27;;;;;;;;;;;21.60;51.10;;;;;;4116579;28;20259;-69
2022/06/16 07:41:32;;;;;;;;;;;21.60;51.00;;;;;;4115699;28;22184;-66
2022/06/16 07:43:35;;;;;;;;;;;21.50;51.50;;;;;;4104343;28;20715;-63
2022/06/16 07:45:38;;;;;;;;;;;21.50;51.80;;;;;;4113185;28;20353;-61
2022/06/16 07:47:40;;;;;;;;;;;21.50;52.20;;;;;;4121385;28;19975;-68
2022/06/16 07:49:43;;;;;;;;;;;21.50;52.20;;;;;;4098991;28;19937;-61
2022/06/16 07:51:44;;;;;;;;;;;21.50;51.80;;;;;;4115636;28;19964;-63
2022/06/16 07:53:47;;;;;;;;;;;21.50;52.20;;;;;;4118649;28;20028;-66
2022/06/16 07:55:49;;;;;;;;;;;21.50;52.20;;;;;;4119712;28;19963;-63
2022/06/16 07:57:51;;;;;;;;;;;21.50;52.50;;;;;;4114817;28;20309;-63
2022/06/16 07:59:54;;;;;;;;;;;21.50;52.70;;;;;;4115113;28;19933;-62
2022/06/16 08:01:55;;;;;;;;;;;21.50;52.80;;;;;;4116472;28;19947;-63
2022/06/16 08:03:58;;;;;;;;;;;21.50;52.80;;;;;;4111264;28;19921;-66
2022/06/16 08:06:02;;;;;;;;;;;21.50;52.70;;;;;;4111995;28;20333;-61
2022/06/16 08:08:03;;;;;;;;;;;21.50;52.80;;;;;;4116484;28;19949;-65
2022/06/16 08:10:06;;;;;;;;;;;21.40;52.90;;;;;;4114471;28;20638;-67
2022/06/16 08:12:08;;;;;;;;;;;21.40;52.50;;;;;;4107981;28;19987;-67
2022/06/16 08:14:10;;;;;;;;;;;21.40;52.20;;;;;;4118820;28;19929;-68
2022/06/16 08:16:11;;;;;;;;;;;21.30;51.80;;;;;;4117170;28;20373;-68
2022/06/16 08:18:14;;;;;;;;;;;21.30;51.80;;;;;;4115087;28;19925;-67
2022/06/16 08:20:16;;;;;;;;;;;21.30;51.70;;;;;;4113486;28;19936;-67
2022/06/16 08:22:18;;;;;;;;;;;21.20;51.60;;;;;;4123004;28;20313;-68
2022/06/16 08:24:20;;;;;;;;;;;21.20;51.70;;;;;;4111364;28;20413;-62
2022/06/16 08:26:22;;;;;;;;;;;21.20;51.60;;;;;;4114083;28;20338;-67
2022/06/16 08:28:23;;;;;;;;;;;21.20;52.10;;;;;;4115865;28;20074;-68
2022/06/16 08:30:25;;;;;;;;;;;21.20;52.20;;;;;;4110596;28;19924;-64
2022/06/16 08:32:27;;;;;;;;;;;21.10;52.20;;;;;;4109336;28;19986;-68
2022/06/16 08:34:28;;;;;;;;;;;21.20;52.20;;;;;;4120160;28;20433;-64
2022/06/16 08:36:30;;;;;;;;;;;21.10;52.60;;;;;;4110681;28;21252;-64
2022/06/16 08:38:41;;;;;;;;;;;;;;;;;;;;;
